Kang Sheng — VRXL3 — position and weather

sailwx.info

Track history (hours):
 
Tides and Currents Weather Stations Pressure Air Temp Water Temp Dewpoint Dewpoint Depression Visibility Wind Speed Wind Dir Waves Ship Positions

Kang Sheng

Last reported at 2016-May-30 10:33 UTC. Time now 2016-May-31 07:49 UTC.
Position N 29°16' W 094°30'.

Length 190 m; draft 10.8 m.

Type: Cargo ship. MMSI: 477977000.

Date/timePositionNaut miles runAvg speedWind from/ knotsBaromVisibWave heightAir tempDewpointWater temp
2016-May-30 10:33N 29°16' W 094°30'0 0.0
2016-May-30 09:33N 29°16' W 094°30'0 0.0
2016-May-30 08:33N 29°16' W 094°30'0 0.0
2016-May-30 07:12N 29°16' W 094°30'0 0.1
2016-May-30 06:24N 29°16' W 094°30'1 1.0
2016-May-30 05:33N 29°16' W 094°31'4 3.8
2016-May-30 04:21N 29°12' W 094°28'7 8.8
2016-May-30 03:31N 29°08' W 094°21'  
2016-May-24 20:33N 09°43' W 079°57'1111.3
2016-May-24 19:33N 09°32' W 079°55'1110.7
2016-May-24 18:34N 09°21' W 079°55'5 4.6
2016-May-24 17:33N 09°17' W 079°55'0 0.4
2016-May-24 16:34N 09°16' W 079°55'3 2.7
2016-May-24 15:33N 09°13' W 079°55'8 8.1
2016-May-24 14:33N 09°09' W 079°49'8 7.8
2016-May-24 13:32N 09°06' W 079°41'  
Track history (hours):
 
Tides and Currents Weather Stations Pressure Air Temp Water Temp Dewpoint Dewpoint Depression Visibility Wind Speed Wind Dir Waves Ship Positions

Kang Sheng

Last reported at 2016-May-30 10:33 UTC. Time now 2016-May-31 07:49 UTC.
Position N 29°16' W 094°30'.

Length 190 m; draft 10.8 m.

Type: Cargo ship. MMSI: 477977000.

Date/timePositionNaut miles runAvg speedWind from/ knotsBaromVisibWave heightAir tempDewpointWater temp
2016-May-30 10:33N 29°16' W 094°30'0 0.0
2016-May-30 09:33N 29°16' W 094°30'0 0.0
2016-May-30 08:33N 29°16' W 094°30'0 0.0
2016-May-30 07:12N 29°16' W 094°30'0 0.1
2016-May-30 06:24N 29°16' W 094°30'1 1.0
2016-May-30 05:33N 29°16' W 094°31'4 3.8
2016-May-30 04:21N 29°12' W 094°28'7 8.8
2016-May-30 03:31N 29°08' W 094°21'  
2016-May-24 20:33N 09°43' W 079°57'1111.3
2016-May-24 19:33N 09°32' W 079°55'1110.7
2016-May-24 18:34N 09°21' W 079°55'5 4.6
2016-May-24 17:33N 09°17' W 079°55'0 0.4
2016-May-24 16:34N 09°16' W 079°55'3 2.7
2016-May-24 15:33N 09°13' W 079°55'8 8.1
2016-May-24 14:33N 09°09' W 079°49'8 7.8
2016-May-24 13:32N 09°06' W 079°41'  

Dump ship's entire track history